Logo AVAMET
Benvolgut visitant, si us plau, ingressa Recuperar contrasenya

Ondara

Dades diàries. Acumulats / Últims 30 dies disponibles

Data Temperatura (°C) Humitat rel. (%) Pressió rel. (hPa) Vent (km/h) Precipitació
Mínima Mitjana Màxima Amplitud
tèrmica
Mínima Mitjana Màxima Mínima Mitjana Màxima Predom. Mitjana Ràfega
màxima
Total
(mm)
Índex-n
Mínima Mitjana Màxima Mínima Mitjana Màxima n
0 a 1
P0 max
mm 5'
Dades mensuals acumulades fins l'últim dia disponible
05/2019 9,5 14,3 21,6 19,1 19,6 24,0 31,6 22,1 27 64 97 997 1.009 1.020   6,0 62,9 2,1
Dades anuals acumulades fins l'últim dia disponible
2019 1,7 9,5 21,6 14,4 12,8 20,0 31,6 29,9 18 61 99 989 1.014 1.031   6,3 65,1 299,1
Últims 30 dies disponibles
21-05-2019 14,8     18,4     22,8 8,0 54 77 89 1.008 1.010 1.012 S 5,1 34,2 0,8
20-05-2019 12,3     18,1     23,8 11,5 41 61 75 1.007 1.008 1.009 S 7,5 29,8 0,0
19-05-2019 12,1     18,4     24,3 12,2 31 62 87 1.004 1.005 1.007 SSO 5,4 29,6 0,0
18-05-2019 14,2     17,3     20,4 6,2 45 57 67 1.003 1.004 1.005 SSE 4,6 24,1 0,0
17-05-2019 15,7     20,1     25,4 9,7 27 49 81 997 1.000 1.005 SO 10,2 62,9 0,0
16-05-2019 16,2     19,1     22,6 6,4 54 69 84 1.000 1.006 1.010 S 7,8 44,4 0,0
15-05-2019 13,3     19,4     24,6 11,3 49 64 79 1.006 1.007 1.010 SSO 4,2 22,2 0,0
14-05-2019 11,8     19,0     25,1 13,3 30 56 83 1.008 1.013 1.017 S 8,5 40,7 0,0
13-05-2019 14,3     19,7     25,6 11,3 37 64 87 1.013 1.015 1.016 S 5,4 26,3 0,0
12-05-2019 15,4     17,6     21,9 6,5 60 80 90 1.014 1.018 1.020 S 3,3 22,2 0,0
11-05-2019 18,4     22,2     25,9 7,5 41 63 78 1.009 1.013 1.018 SSO 2,9 25,9 0,0
10-05-2019 21,6     26,1     31,6 10,0 33 46 59 1.006 1.008 1.009 SSO 6,3 31,5 0,0
09-05-2019 21,5     24,6     28,4 6,9 38 46 55 1.006 1.007 1.009 OSO 9,3 37,0 0,0
08-05-2019 13,5     22,8     30,7 17,2 30 60 97 1.004 1.007 1.010 SO 6,7 35,2 0,0
07-05-2019 15,3     19,4     25,2 9,9 51 73 90 1.008 1.012 1.014 SSE 4,8 30,5 0,0
06-05-2019 10,7     16,2     21,6 10,9 59 76 91 1.012 1.013 1.015 SSO 6,3 40,7 0,0
05-05-2019 12,7     16,7     19,6 6,9 37 61 83 1.007 1.010 1.012 SSO 7,6 40,7 0,0
04-05-2019 9,5     15,6     20,3 10,8 38 66 93 1.005 1.008 1.009 S 5,9 33,3 0,5
03-05-2019 12,0     15,2     20,6 8,6 61 76 90 1.005 1.008 1.010 SSO 4,2 20,9 0,8
02-05-2019 13,4     17,1     20,9 7,5 56 73 89 1.009 1.010 1.012 SSO 2,8 16,6 0,0
01-05-2019 11,9     17,1     22,0 10,1 29 67 92 1.008 1.010 1.012 S 8,0 40,7 0,0
30-04-2019 13,6     17,3     21,3 7,7 52 72 88 1.010 1.012 1.014 SSE 9,0 38,9 0,0
29-04-2019 11,5     16,2     20,9 9,4 60 75 90 1.012 1.014 1.016 S 7,9 38,9 0,0
28-04-2019 10,9     17,7     24,4 13,5 32 60 85 1.014 1.017 1.020 S 5,4 29,8 0,0
27-04-2019 11,5     18,1     22,9 11,4 33 53 71 1.018 1.020 1.022 S 5,3 25,9 0,0
26-04-2019 14,1     18,0     22,8 8,7 32 44 56 1.013 1.017 1.020 SO 8,5 48,5 0,0
25-04-2019 13,5     18,3     22,1 8,6 38 58 81 1.004 1.007 1.013 SSO 6,9 44,4 0,0
24-04-2019 9,7     16,3     21,4 11,7 35 51 73 1.000 1.004 1.006 SSO 8,7 42,6 0,0
23-04-2019 10,2     15,4     23,7 13,5 45 75 93 993 995 999 SSO 5,5 38,9 3,3 0,78 1,80
22-04-2019 11,9     13,4     15,0 3,1 71 88 98 996 996 1.001 O 8,4 37,7 75,2 0,56 1,60
Últims 13 mesos disponibles
04/2019 8,2 11,6 14,6 15,8 14,3 20,4 29,3 21,1 42 66 94 995 1.008 1.020 S 6,6 57,4 236,8
03/2019 6,6 9,1 13,7 14,7 13,8 20,7 28,9 22,3 35 58 91 1.005 1.018 1.025 S 5,6 54,2 56,1
02/2019 4,6 7,0 12,1 12,3 13,1 18,6 25,3 20,7 32 62 80 991 1.020 1.029 S 6,2 61,8 0,0
01/2019 1,7 6,8 14,1 11,4 12,8 17,4 21,4 19,7 34 58 81 998 1.014 1.025 ESE 7,1 65,1 4,1
12/2018 4,9 8,3 11,8 13,0 13,4 19,5 25,0 20,1 49 70 90 1.004 1.020 1.026 E 5,1 59,9 33,2
11/2018 6,3 11,5 16,9 15,1 14,4 19,6 25,6 19,3 42 69 93 996 1.010 1.018 ESE 5,6 66,6 117,0
10/2018 9,4 14,7 17,9 18,6 16,1 23,9 29,5 20,1 38 70 86 995 1.009 1.020 5,4 66,6 92,7
09/2018 14,5 20,9 23,5 24,6 24,3 29,3 34,4 19,9 58 74 88 1.007 1.013 1.022 4,3 46,3 50,8
08/2018 19,3 22,8 26,6 27,6 25,6 32,5 37,9 18,6 40 65 82 1.007 1.011 1.016 5,5 53,8 34,7
07/2018 20,1 22,7 25,4 27,7 27,2 32,8 36,9 16,8 35 61 78 1.004 1.009 1.014 6,3 56,1 1,0
06/2018 14,3 18,9 22,7 24,2 23,7 29,3 33,3 19,0 40 58 74 1.004 1.010 1.015 6,2 50,0 13,5
05/2018 8,2 14,3 19,6 19,5 18,9 24,7 28,7 20,5 38 60 71 1.004 1.010 1.012 5,7 48,1 4,6
04/2018 8,3 12,4 16,4 16,9 14,7 21,6 28,8 20,5 37 60 85 992 1.009 1.020 6,8 66,6 8,7
Tots els anys disponibles
2018 -1,0 14,8 26,6 19,1 6,9 24,0 37,9 38,9 20 63 93 988 1.010 1.026 SSO 5,4 67,2 465,0
2017 0,9 14,4 26,7 19,0 9,2 23,7 36,3 35,4 19 58 91 988 1.017 1.033 S 0,0 75,0 851,9
Temperatura (°C)
Humitat relativa (%)
Velocitat del vent i ràfega màxima (km/h)
Direcció del vent (°)
Pressió (hPa)
Precipitació (mm)
Nota sobre les dades: s'avisa a l'usuari de la provisionalitat i no oficialitat d'aquestes dades
Logo AVAMET blanc
Web allotjada a Sollutia
Llicència de Creative CommonsLa web d'AVAMET i els seus continguts estan subjectes a una llicència de
Reconeixement - No Comercial - Compartir igual
Properes estacions: Altea - Club Nàutic d'Altea (Soci), Ontinyent - El Pilar (Soci), Ares del Maestrat (Ajuntament Soci), Catadau - L'Altet (Inforatge)     - - - - -      Últimes estacions: Jacarilla - centro (MeteOrihuela), Elx - Maitino/Vallverda/Velarde/Matola/Ferriol (Soci TiempoElche.com), Orihuela - Playa Flamenca (MeteOrihuela), Puçol - Ciutat Jardí (Soci), Alzira - La Casella (Soci) - - -